Low Ground, Missouri
Current Conditions -  °F | °C
As of 2:55 AM on Saturday 20 Dec 2014 (Local Time) from KIRK Reporting Station
Haze Haze  
Wind Chill: 27°   Ceiling: 200
Heat Index: 32°   Visibility: 1.5mi
Dew Point: 32°   Wind: 5mph
Humidity: 100%   Direction: 170°S
Pressure: 30.22"   Gusts: NA
Location:  40.2969°N, 92.7524°W
Report Text: KIRK 200855Z AUTO 17004KT 1 1/2SM BR OVC002 00/00 A3022 RMK AO2 SLP247 I3000 T00000000 55002
Loading
Personal Weather Stations






























Interactive Weather Map New forecast layout! Learn more

10-Day Weather Forecast

Advertisements
Track Severe Weather on mobile